createdAt,value
2023-05-21T00:01:08.587Z,21.90
2023-05-21T00:03:36.529Z,21.90
2023-05-21T00:06:04.267Z,21.90
2023-05-21T00:08:31.637Z,21.90
2023-05-21T00:10:58.932Z,21.80
2023-05-21T00:13:26.283Z,21.80
2023-05-21T00:15:56.041Z,21.80
2023-05-21T00:18:25.363Z,21.80
2023-05-21T00:20:53.161Z,21.80
2023-05-21T00:23:21.476Z,21.80
2023-05-21T00:25:50.537Z,21.70
2023-05-21T00:28:18.143Z,21.70
2023-05-21T00:30:45.924Z,21.70
2023-05-21T00:33:15.906Z,21.70
2023-05-21T00:35:43.345Z,21.70
2023-05-21T00:38:10.696Z,21.70
2023-05-21T00:40:41.168Z,21.70
2023-05-21T00:43:10.836Z,21.70
2023-05-21T00:45:38.561Z,21.70
2023-05-21T00:48:06.647Z,21.60
2023-05-21T00:50:34.247Z,21.60
2023-05-21T00:53:04.975Z,21.60
2023-05-21T00:55:32.313Z,21.60
2023-05-21T00:57:59.665Z,21.60
2023-05-21T01:00:28.214Z,21.60
2023-05-21T01:02:55.734Z,21.60
2023-05-21T01:05:23.197Z,21.50
2023-05-21T01:07:52.741Z,21.60
2023-05-21T01:10:20.071Z,21.50
2023-05-21T01:12:50.174Z,21.50
2023-05-21T01:15:17.506Z,21.50
2023-05-21T01:17:48.811Z,21.50
2023-05-21T01:20:20.100Z,21.50
2023-05-21T01:22:57.123Z,21.50
2023-05-21T01:25:27.527Z,21.50
2023-05-21T01:27:54.942Z,21.40
2023-05-21T01:30:24.648Z,21.50
2023-05-21T01:33:04.255Z,21.40
2023-05-21T01:35:38.975Z,21.40
2023-05-21T01:38:22.814Z,21.40
2023-05-21T01:41:03.780Z,21.40
2023-05-21T01:43:39.710Z,21.30
2023-05-21T01:46:13.354Z,21.30
2023-05-21T01:48:41.958Z,21.30
2023-05-21T01:51:09.557Z,21.20
2023-05-21T01:53:40.764Z,21.20
2023-05-21T01:56:08.330Z,21.20
2023-05-21T01:58:35.635Z,21.20
2023-05-21T02:01:05.626Z,21.10
2023-05-21T02:03:35.809Z,21.10
2023-05-21T02:06:03.299Z,21.10
2023-05-21T02:08:31.337Z,21.10
2023-05-21T02:10:58.998Z,21.10
2023-05-21T02:13:29.182Z,21.00
2023-05-21T02:15:56.531Z,21.00
2023-05-21T02:18:23.899Z,21.00
2023-05-21T02:20:51.171Z,21.00
2023-05-21T02:23:18.500Z,21.00
2023-05-21T02:25:45.875Z,21.00
2023-05-21T02:28:13.244Z,20.90
2023-05-21T02:30:43.058Z,20.90
2023-05-21T02:33:14.191Z,20.90
2023-05-21T02:35:41.838Z,20.90
2023-05-21T02:38:13.642Z,20.90
2023-05-21T02:40:41.088Z,20.90
2023-05-21T02:43:08.361Z,20.80
2023-05-21T02:45:36.101Z,20.80
2023-05-21T02:48:03.780Z,20.80
2023-05-21T02:50:33.626Z,20.70
2023-05-21T02:53:06.340Z,20.70
2023-05-21T02:55:36.457Z,20.70
2023-05-21T02:58:03.985Z,20.70
2023-05-21T03:00:31.501Z,20.60
2023-05-21T03:02:58.880Z,20.60
2023-05-21T03:05:26.223Z,20.60
2023-05-21T03:07:53.597Z,20.50
2023-05-21T03:10:25.425Z,20.50
2023-05-21T03:12:54.866Z,20.50
2023-05-21T03:15:24.228Z,20.50
2023-05-21T03:17:54.273Z,20.50
2023-05-21T03:20:21.740Z,20.50
2023-05-21T03:22:51.252Z,20.40
2023-05-21T03:25:18.600Z,20.40
2023-05-21T03:27:45.989Z,20.40
2023-05-21T03:30:15.948Z,20.40
2023-05-21T03:32:45.643Z,20.30
2023-05-21T03:35:13.015Z,20.30
2023-05-21T03:37:40.328Z,20.30
2023-05-21T03:40:08.299Z,20.30
2023-05-21T03:42:35.585Z,20.20
2023-05-21T03:45:06.548Z,20.30
2023-05-21T03:47:36.407Z,20.20
2023-05-21T03:50:05.622Z,20.20
2023-05-21T03:52:32.909Z,20.20
2023-05-21T03:55:00.213Z,20.20
2023-05-21T03:57:28.069Z,20.20
2023-05-21T03:59:55.966Z,20.20
2023-05-21T04:02:25.440Z,20.20
2023-05-21T04:04:53.723Z,20.20
2023-05-21T04:07:23.889Z,20.20
2023-05-21T04:09:53.628Z,20.20
2023-05-21T04:12:20.935Z,20.20
2023-05-21T04:14:48.710Z,20.20
2023-05-21T04:17:16.060Z,20.20
2023-05-21T04:19:43.444Z,20.20
2023-05-21T04:22:12.248Z,20.20
2023-05-21T04:24:39.617Z,20.20
2023-05-21T04:27:06.945Z,20.20
2023-05-21T04:29:34.256Z,20.20
2023-05-21T04:32:01.554Z,20.20
2023-05-21T04:34:29.757Z,20.20
2023-05-21T04:36:59.534Z,20.20
2023-05-21T04:39:26.882Z,20.20
2023-05-21T04:41:56.882Z,20.30
2023-05-21T04:44:24.778Z,20.30
2023-05-21T04:46:52.767Z,20.30
2023-05-21T04:49:21.465Z,20.30
2023-05-21T04:51:49.475Z,20.40
2023-05-21T04:54:16.906Z,20.40
2023-05-21T04:56:44.479Z,20.50
2023-05-21T04:59:11.866Z,20.50
2023-05-21T05:01:39.255Z,20.50
2023-05-21T05:04:06.858Z,20.50
2023-05-21T05:06:34.153Z,20.50
2023-05-21T05:09:04.685Z,20.50
2023-05-21T05:11:32.057Z,20.60
2023-05-21T05:13:59.325Z,20.60
2023-05-21T05:16:26.762Z,20.70
2023-05-21T05:18:54.208Z,20.70
2023-05-21T05:21:23.933Z,20.70
2023-05-21T05:23:53.798Z,20.70
2023-05-21T05:26:23.505Z,20.70
2023-05-21T05:28:50.847Z,20.80
2023-05-21T05:31:18.155Z,20.80
2023-05-21T05:33:45.553Z,20.80
2023-05-21T05:36:12.859Z,20.80
2023-05-21T05:38:42.560Z,20.80
2023-05-21T05:41:09.886Z,20.90
2023-05-21T05:43:37.313Z,20.90
2023-05-21T05:46:06.740Z,20.90
2023-05-21T05:48:36.253Z,20.90
2023-05-21T05:51:03.690Z,20.90
2023-05-21T05:53:32.361Z,21.00
2023-05-21T05:56:02.554Z,21.00
2023-05-21T05:58:33.266Z,21.10
2023-05-21T06:01:04.211Z,21.10
2023-05-21T06:03:34.075Z,21.20
2023-05-21T06:06:01.545Z,21.20
2023-05-21T06:08:29.199Z,21.30
2023-05-21T06:10:58.618Z,21.30
2023-05-21T06:13:25.988Z,21.30
2023-05-21T06:15:53.579Z,21.30
2023-05-21T06:18:21.019Z,21.40
2023-05-21T06:20:48.355Z,21.50
2023-05-21T06:23:15.718Z,21.60
2023-05-21T06:25:42.999Z,21.60
2023-05-21T06:28:10.312Z,21.70
2023-05-21T06:30:37.651Z,21.80
2023-05-21T06:33:07.650Z,21.90
2023-05-21T06:35:37.177Z,22.00
2023-05-21T06:38:04.783Z,22.10
2023-05-21T06:40:32.057Z,22.20
2023-05-21T06:42:59.950Z,22.30
2023-05-21T06:45:27.343Z,22.40
2023-05-21T06:47:54.709Z,22.50
2023-05-21T06:50:24.276Z,22.60
2023-05-21T06:52:53.798Z,22.70
2023-05-21T06:55:21.339Z,22.80
2023-05-21T06:57:48.647Z,22.90
2023-05-21T07:00:16.072Z,23.00
2023-05-21T07:02:43.396Z,23.10
2023-05-21T07:05:10.802Z,23.10
2023-05-21T07:07:38.081Z,23.20
2023-05-21T07:10:06.062Z,23.30
2023-05-21T07:12:33.334Z,23.50
2023-05-21T07:15:00.708Z,23.50
2023-05-21T07:17:28.071Z,23.70
2023-05-21T07:19:56.074Z,23.70
2023-05-21T07:22:23.980Z,23.80
2023-05-21T07:24:51.934Z,23.80
2023-05-21T07:29:51.977Z,23.90
2023-05-21T07:32:19.306Z,24.00
2023-05-21T07:34:47.184Z,24.00
2023-05-21T07:37:14.487Z,24.10
2023-05-21T07:39:44.199Z,24.10
2023-05-21T07:42:11.500Z,24.20
2023-05-21T07:44:38.779Z,24.20
2023-05-21T07:47:08.273Z,24.30
2023-05-21T07:49:40.546Z,24.40
2023-05-21T07:52:10.067Z,24.40
2023-05-21T07:54:37.380Z,24.50
2023-05-21T07:57:04.969Z,24.60
2023-05-21T07:59:33.602Z,24.70
2023-05-21T08:02:03.251Z,24.70
2023-05-21T08:04:30.781Z,24.80
2023-05-21T08:06:58.200Z,24.80
2023-05-21T08:09:26.142Z,24.90
2023-05-21T08:11:53.491Z,25.00
2023-05-21T08:14:20.777Z,25.10
2023-05-21T08:16:52.831Z,25.10
2023-05-21T08:19:20.362Z,25.20
2023-05-21T08:21:52.714Z,25.20
2023-05-21T08:24:26.422Z,25.30
2023-05-21T08:26:53.784Z,25.40
2023-05-21T08:29:23.511Z,25.40
2023-05-21T08:31:53.686Z,25.50
2023-05-21T08:34:21.087Z,25.50
2023-05-21T08:36:49.978Z,25.60
2023-05-21T08:39:19.842Z,25.60
2023-05-21T08:41:51.931Z,25.60
2023-05-21T08:44:24.115Z,25.70
2023-05-21T08:46:54.458Z,25.70
2023-05-21T08:49:27.881Z,25.80
2023-05-21T08:51:57.825Z,25.80
2023-05-21T08:54:25.324Z,25.90
2023-05-21T08:56:56.416Z,25.90
2023-05-21T08:59:24.114Z,25.90
2023-05-21T09:01:54.005Z,26.00
2023-05-21T09:04:23.985Z,26.00
2023-05-21T09:06:52.031Z,26.10
2023-05-21T09:09:41.918Z,26.10
2023-05-21T09:12:09.234Z,26.20
2023-05-21T09:14:38.083Z,26.30
2023-05-21T09:17:05.525Z,26.30
2023-05-21T09:19:33.033Z,26.40
2023-05-21T09:22:04.126Z,26.40
2023-05-21T09:24:35.091Z,26.40
2023-05-21T09:27:06.434Z,26.40
2023-05-21T09:29:34.603Z,26.50
2023-05-21T09:32:07.146Z,26.50
2023-05-21T09:34:36.726Z,26.60
2023-05-21T09:37:06.509Z,26.70
2023-05-21T09:39:36.020Z,26.70
2023-05-21T09:42:03.408Z,26.80
2023-05-21T09:44:30.755Z,26.80
2023-05-21T09:46:59.640Z,26.90
2023-05-21T09:49:28.094Z,26.90
2023-05-21T09:51:59.714Z,27.00
2023-05-21T09:54:33.349Z,27.00
2023-05-21T09:57:04.100Z,27.10
2023-05-21T09:59:40.452Z,27.20
2023-05-21T10:02:21.854Z,27.20
2023-05-21T10:04:51.713Z,27.30
2023-05-21T10:07:27.200Z,27.40
2023-05-21T10:09:58.501Z,27.40
2023-05-21T10:12:30.273Z,27.50
2023-05-21T10:15:03.452Z,27.60
2023-05-21T10:17:31.494Z,27.60
2023-05-21T10:20:00.602Z,27.60
2023-05-21T10:22:28.512Z,27.70
2023-05-21T10:24:56.613Z,27.70
2023-05-21T10:27:26.852Z,27.80
2023-05-21T10:29:57.192Z,27.80
2023-05-21T10:32:26.077Z,27.90
2023-05-21T10:34:59.314Z,28.00
2023-05-21T10:37:28.811Z,28.00
2023-05-21T10:39:56.526Z,28.10
2023-05-21T10:42:46.794Z,28.10
2023-05-21T10:45:27.046Z,28.20
2023-05-21T10:48:09.818Z,28.30
2023-05-21T10:50:48.779Z,28.40
2023-05-21T10:53:47.832Z,28.50
2023-05-21T10:56:38.916Z,28.50
2023-05-21T10:59:23.973Z,28.70
2023-05-21T11:01:54.106Z,28.70
2023-05-21T11:04:30.239Z,28.70
2023-05-21T11:06:59.271Z,28.80
2023-05-21T11:09:27.536Z,28.90
2023-05-21T11:12:00.159Z,28.90
2023-05-21T11:14:50.951Z,28.90
2023-05-21T11:17:39.022Z,29.00
2023-05-21T11:20:12.162Z,29.00
2023-05-21T11:22:39.616Z,29.00
2023-05-21T11:25:07.258Z,29.00
2023-05-21T11:27:36.780Z,29.10
2023-05-21T11:30:23.177Z,29.10
2023-05-21T11:33:10.913Z,29.10
2023-05-21T11:35:50.223Z,29.20
2023-05-21T11:38:18.502Z,29.20
2023-05-21T11:40:55.627Z,29.30
2023-05-21T11:43:23.102Z,29.30
2023-05-21T11:45:52.751Z,29.30
2023-05-21T11:48:26.722Z,29.40
2023-05-21T11:50:55.128Z,29.40
2023-05-21T11:53:24.845Z,29.40
2023-05-21T11:55:57.471Z,29.50
2023-05-21T11:58:25.140Z,29.50
2023-05-21T12:00:54.872Z,29.50
2023-05-21T12:03:26.892Z,29.50
2023-05-21T12:05:58.094Z,29.50
2023-05-21T12:08:25.737Z,29.60
2023-05-21T12:10:59.194Z,29.70
2023-05-21T12:13:32.195Z,29.70
2023-05-21T12:15:59.960Z,29.80
2023-05-21T12:18:29.631Z,29.90
2023-05-21T12:20:59.078Z,30.00
2023-05-21T12:23:26.449Z,30.10
2023-05-21T12:25:56.303Z,30.20
2023-05-21T12:28:24.876Z,30.20
2023-05-21T12:30:53.589Z,30.20
2023-05-21T12:33:26.063Z,30.30
2023-05-21T12:35:53.519Z,30.30
2023-05-21T12:38:20.896Z,30.40
2023-05-21T12:40:48.219Z,30.50
2023-05-21T12:43:15.620Z,30.60
2023-05-21T12:45:43.763Z,30.70
2023-05-21T12:48:13.838Z,30.80
2023-05-21T12:50:43.498Z,31.00
2023-05-21T12:53:13.369Z,31.10
2023-05-21T12:55:40.864Z,31.30
2023-05-21T12:58:09.356Z,31.50
2023-05-21T13:00:41.686Z,31.60
2023-05-21T13:03:09.250Z,31.80
2023-05-21T13:05:43.798Z,32.00
2023-05-21T13:08:11.425Z,32.20
2023-05-21T13:10:40.988Z,32.60
2023-05-21T13:13:10.745Z,33.00
2023-05-21T13:15:38.087Z,33.50
2023-05-21T13:18:05.423Z,33.90
2023-05-21T13:20:35.459Z,34.20
2023-05-21T13:23:07.201Z,34.40
2023-05-21T13:25:35.671Z,34.50
2023-05-21T13:28:08.743Z,34.70
2023-05-21T13:30:39.508Z,35.00
2023-05-21T13:33:07.321Z,35.50
2023-05-21T13:35:34.790Z,35.90
2023-05-21T13:38:02.121Z,36.30
2023-05-21T13:40:29.382Z,36.60
2023-05-21T13:42:56.845Z,36.90
2023-05-21T13:45:28.994Z,37.00
2023-05-21T13:47:59.133Z,36.90
2023-05-21T13:50:26.575Z,36.60
2023-05-21T13:52:56.801Z,36.20
2023-05-21T13:55:24.105Z,35.70
2023-05-21T13:57:51.450Z,35.20
2023-05-21T14:00:18.837Z,34.70
2023-05-21T14:02:46.227Z,34.20
2023-05-21T14:05:14.110Z,33.70
2023-05-21T14:07:44.090Z,33.30
2023-05-21T14:10:11.824Z,32.90
2023-05-21T14:12:42.070Z,32.50
2023-05-21T14:15:10.025Z,32.20
2023-05-21T14:17:40.273Z,31.90
2023-05-21T14:20:08.381Z,31.60
2023-05-21T14:22:41.389Z,31.40
2023-05-21T14:25:09.111Z,31.20
2023-05-21T14:27:37.986Z,31.00
2023-05-21T14:30:05.952Z,30.80
2023-05-21T14:32:33.258Z,30.60
2023-05-21T14:35:03.105Z,30.40
2023-05-21T14:37:35.174Z,30.30
2023-05-21T14:40:05.377Z,30.20
2023-05-21T14:42:32.653Z,30.10
2023-05-21T14:45:16.949Z,29.90
2023-05-21T14:47:45.322Z,29.80
2023-05-21T14:50:12.674Z,29.70
2023-05-21T14:52:42.594Z,29.70
2023-05-21T14:55:12.820Z,29.60
2023-05-21T14:57:40.099Z,29.50
2023-05-21T15:00:10.303Z,29.40
2023-05-21T15:02:38.382Z,29.40
2023-05-21T15:05:06.343Z,29.40
2023-05-21T15:07:33.625Z,29.30
2023-05-21T15:10:00.904Z,29.30
2023-05-21T15:12:28.423Z,29.20
2023-05-21T15:14:55.792Z,29.20
2023-05-21T15:17:23.142Z,29.20
2023-05-21T15:19:50.471Z,29.10
2023-05-21T15:22:17.786Z,29.10
2023-05-21T15:24:45.092Z,29.10
2023-05-21T15:27:14.904Z,29.00
2023-05-21T15:29:42.280Z,28.90
2023-05-21T15:32:09.579Z,28.90
2023-05-21T15:34:39.394Z,28.90
2023-05-21T15:37:09.190Z,28.90
2023-05-21T15:39:36.427Z,28.80
2023-05-21T15:42:03.812Z,28.80
2023-05-21T15:44:33.361Z,28.80
2023-05-21T15:47:00.860Z,28.80
2023-05-21T15:49:32.965Z,28.80
2023-05-21T15:52:03.142Z,28.70
2023-05-21T15:54:33.547Z,28.70
2023-05-21T15:57:00.883Z,28.70
2023-05-21T15:59:28.256Z,28.60
2023-05-21T16:01:56.345Z,28.60
2023-05-21T16:04:25.803Z,28.60
2023-05-21T16:06:53.148Z,28.60
2023-05-21T16:09:20.455Z,28.60
2023-05-21T16:11:50.182Z,28.50
2023-05-21T16:14:19.594Z,28.50
2023-05-21T16:16:49.188Z,28.50
2023-05-21T16:19:21.366Z,28.40
2023-05-21T16:21:48.756Z,28.40
2023-05-21T16:24:16.206Z,28.40
2023-05-21T16:26:44.278Z,28.40
2023-05-21T16:29:13.976Z,28.40
2023-05-21T16:31:41.354Z,28.30
2023-05-21T16:34:10.832Z,28.30
2023-05-21T16:36:38.401Z,28.30
2023-05-21T16:39:05.734Z,28.30
2023-05-21T16:41:33.984Z,28.20
2023-05-21T16:44:01.272Z,28.20
2023-05-21T16:46:31.227Z,28.20
2023-05-21T16:49:01.362Z,28.20
2023-05-21T16:51:28.654Z,28.20
2023-05-21T16:54:00.711Z,28.10
2023-05-21T16:56:28.059Z,28.10
2023-05-21T16:58:55.415Z,28.00
2023-05-21T17:01:23.039Z,28.00
2023-05-21T17:03:50.551Z,28.00
2023-05-21T17:06:17.990Z,28.00
2023-05-21T17:08:45.491Z,27.90
2023-05-21T17:11:15.977Z,27.90
2023-05-21T17:13:48.989Z,27.90
2023-05-21T17:16:18.516Z,27.80
2023-05-21T17:18:45.906Z,27.80
2023-05-21T17:21:13.684Z,27.80
2023-05-21T17:23:42.848Z,27.80
2023-05-21T17:26:13.336Z,27.70
2023-05-21T17:28:40.630Z,27.70
2023-05-21T17:31:10.303Z,27.70
2023-05-21T17:33:37.901Z,27.60
2023-05-21T17:36:05.400Z,27.60
2023-05-21T17:38:32.703Z,27.60
2023-05-21T17:41:02.783Z,27.50
2023-05-21T17:43:31.924Z,27.50
2023-05-21T17:45:59.515Z,27.50
2023-05-21T17:48:26.772Z,27.40
2023-05-21T17:50:54.376Z,27.40
2023-05-21T17:53:22.770Z,27.30
2023-05-21T17:55:50.226Z,27.30
2023-05-21T17:58:19.706Z,27.30
2023-05-21T18:00:49.389Z,27.20
2023-05-21T18:03:16.736Z,27.20
2023-05-21T18:05:44.068Z,27.20
2023-05-21T18:08:11.577Z,27.10
2023-05-21T18:10:41.013Z,27.10
2023-05-21T18:13:08.309Z,27.10
2023-05-21T18:15:36.000Z,27.00
2023-05-21T18:18:03.896Z,27.00
2023-05-21T18:20:35.904Z,27.00
2023-05-21T18:23:05.878Z,26.90
2023-05-21T18:25:33.173Z,26.90
2023-05-21T18:28:02.851Z,26.90
2023-05-21T18:30:30.125Z,26.80
2023-05-21T18:32:57.415Z,26.80
2023-05-21T18:35:24.819Z,26.80
2023-05-21T18:37:52.109Z,26.70
2023-05-21T18:40:22.963Z,26.60
2023-05-21T18:42:50.385Z,26.60
2023-05-21T18:45:22.180Z,26.60
2023-05-21T18:47:49.482Z,26.50
2023-05-21T18:50:19.059Z,26.50
2023-05-21T18:52:53.387Z,26.50
2023-05-21T18:55:23.423Z,26.40
2023-05-21T18:57:53.035Z,26.40
2023-05-21T19:00:22.936Z,26.30
2023-05-21T19:02:50.287Z,26.30
2023-05-21T19:05:17.752Z,26.30
2023-05-21T19:07:45.092Z,26.20
2023-05-21T19:10:12.713Z,26.20
2023-05-21T19:12:41.884Z,26.10
2023-05-21T19:15:10.028Z,26.10
2023-05-21T19:17:39.129Z,26.10
2023-05-21T19:20:10.684Z,26.10
2023-05-21T19:22:38.033Z,26.00
2023-05-21T19:25:08.176Z,26.00
2023-05-21T19:27:35.477Z,25.90
2023-05-21T19:30:02.818Z,25.90
2023-05-21T19:32:30.928Z,25.90
2023-05-21T19:35:00.722Z,25.80
2023-05-21T19:37:28.114Z,25.80
2023-05-21T19:39:58.410Z,25.80
2023-05-21T19:42:25.841Z,25.80
2023-05-21T19:44:53.109Z,25.70
2023-05-21T19:47:20.511Z,25.70
2023-05-21T19:49:52.412Z,25.70
2023-05-21T19:52:24.572Z,25.60
2023-05-21T19:54:54.383Z,25.60
2023-05-21T19:57:21.670Z,25.50
2023-05-21T19:59:48.994Z,25.50
2023-05-21T20:02:17.118Z,25.50
2023-05-21T20:04:44.410Z,25.40
2023-05-21T20:07:14.196Z,25.40
2023-05-21T20:09:41.770Z,25.40
2023-05-21T20:12:09.482Z,25.30
2023-05-21T20:14:39.297Z,25.30
2023-05-21T20:17:07.203Z,25.30
2023-05-21T20:19:35.839Z,25.20
2023-05-21T20:22:05.951Z,25.20
2023-05-21T20:24:35.865Z,25.20
2023-05-21T20:27:05.553Z,25.10
2023-05-21T20:29:32.999Z,25.10
2023-05-21T20:32:02.785Z,25.00
2023-05-21T20:34:30.166Z,25.00
2023-05-21T20:36:58.305Z,25.00
2023-05-21T20:39:29.588Z,25.00
2023-05-21T20:41:58.225Z,24.90
2023-05-21T20:44:27.468Z,24.90
2023-05-21T20:46:57.183Z,24.90
2023-05-21T20:49:25.048Z,24.90
2023-05-21T20:51:56.954Z,24.80
2023-05-21T20:54:27.019Z,24.70
2023-05-21T20:56:58.978Z,24.70
2023-05-21T20:59:27.387Z,24.70
2023-05-21T21:01:57.286Z,24.60
2023-05-21T21:04:26.903Z,24.50
2023-05-21T21:06:55.309Z,24.50
2023-05-21T21:09:30.074Z,24.50
2023-05-21T21:11:57.463Z,24.40
2023-05-21T21:14:24.832Z,24.40
2023-05-21T21:16:52.106Z,24.40
2023-05-21T21:19:19.567Z,24.30
2023-05-21T21:21:47.798Z,24.30
2023-05-21T21:24:15.089Z,24.20
2023-05-21T21:26:42.377Z,24.20
2023-05-21T21:29:09.645Z,24.20
2023-05-21T21:31:36.995Z,24.20
2023-05-21T21:34:04.330Z,24.10
2023-05-21T21:36:31.741Z,24.10
2023-05-21T21:39:02.593Z,24.00
2023-05-21T21:41:30.020Z,24.00
2023-05-21T21:44:01.749Z,24.00
2023-05-21T21:46:31.438Z,24.00
2023-05-21T21:48:58.768Z,24.00
2023-05-21T21:51:28.559Z,23.90
2023-05-21T21:54:00.212Z,23.90
2023-05-21T21:56:27.466Z,23.90
2023-05-21T21:58:57.310Z,23.90
2023-05-21T22:01:24.912Z,23.80
2023-05-21T22:03:54.443Z,23.80
2023-05-21T22:06:21.900Z,23.80
2023-05-21T22:08:51.461Z,23.70
2023-05-21T22:11:18.831Z,23.70
2023-05-21T22:13:46.153Z,23.70
2023-05-21T22:16:15.637Z,23.70
2023-05-21T22:18:46.158Z,23.60
2023-05-21T22:21:14.489Z,23.60
2023-05-21T22:23:41.923Z,23.50
2023-05-21T22:26:09.841Z,23.50
2023-05-21T22:28:39.630Z,23.50
2023-05-21T22:31:10.649Z,23.50
2023-05-21T22:33:40.480Z,23.40
2023-05-21T22:36:11.089Z,23.40
2023-05-21T22:38:38.423Z,23.40
2023-05-21T22:41:05.894Z,23.30
2023-05-21T22:43:34.678Z,23.30
2023-05-21T22:46:02.089Z,23.30
2023-05-21T22:48:31.736Z,23.30
2023-05-21T22:51:01.816Z,23.20
2023-05-21T22:53:29.300Z,23.20
2023-05-21T22:55:56.586Z,23.10
2023-05-21T22:58:23.884Z,23.10
2023-05-21T23:00:51.222Z,23.10
2023-05-21T23:03:18.512Z,23.10
2023-05-21T23:05:46.162Z,23.00
2023-05-21T23:08:13.864Z,23.00
2023-05-21T23:10:45.504Z,23.00
2023-05-21T23:13:15.009Z,23.00
2023-05-21T23:15:48.433Z,22.90
2023-05-21T23:18:16.598Z,22.90
2023-05-21T23:20:46.363Z,22.90
2023-05-21T23:23:13.651Z,22.80
2023-05-21T23:25:40.976Z,22.80
2023-05-21T23:28:08.423Z,22.80
2023-05-21T23:30:38.346Z,22.70
2023-05-21T23:33:05.844Z,22.70
2023-05-21T23:35:35.776Z,22.70
2023-05-21T23:38:03.631Z,22.60
2023-05-21T23:40:33.103Z,22.60
2023-05-21T23:43:00.570Z,22.60
2023-05-21T23:45:27.889Z,22.60
2023-05-21T23:47:57.596Z,22.50
2023-05-21T23:50:25.127Z,22.50
2023-05-21T23:52:52.431Z,22.40
2023-05-21T23:55:21.989Z,22.40
2023-05-21T23:57:49.375Z,22.40
